sensor_id;sensor_type;location;lat;lon;timestamp;temperature;humidity
59923;DHT22;45778;51.142;3.732;2023-07-20T00:00:07;16.40;99.90
59923;DHT22;45778;51.142;3.732;2023-07-20T00:02:33;16.40;99.90
59923;DHT22;45778;51.142;3.732;2023-07-20T00:04:58;16.30;99.90
59923;DHT22;45778;51.142;3.732;2023-07-20T00:07:25;16.30;99.90
59923;DHT22;45778;51.142;3.732;2023-07-20T00:09:50;16.40;99.90
59923;DHT22;45778;51.142;3.732;2023-07-20T00:12:16;16.30;99.90
59923;DHT22;45778;51.142;3.732;2023-07-20T00:14:42;16.20;99.90
59923;DHT22;45778;51.142;3.732;2023-07-20T00:17:07;16.10;99.90
59923;DHT22;45778;51.142;3.732;2023-07-20T00:19:33;16.00;99.90
59923;DHT22;45778;51.142;3.732;2023-07-20T00:22:00;15.90;99.90
59923;DHT22;45778;51.142;3.732;2023-07-20T00:24:27;15.80;99.90
59923;DHT22;45778;51.142;3.732;2023-07-20T00:26:53;15.70;99.90
59923;DHT22;45778;51.142;3.732;2023-07-20T00:29:18;15.70;99.90
59923;DHT22;45778;51.142;3.732;2023-07-20T00:31:44;15.60;99.90
59923;DHT22;45778;51.142;3.732;2023-07-20T00:34:10;15.60;99.90
59923;DHT22;45778;51.142;3.732;2023-07-20T00:36:36;15.60;99.90
59923;DHT22;45778;51.142;3.732;2023-07-20T00:39:02;15.50;99.90
59923;DHT22;45778;51.142;3.732;2023-07-20T00:41:28;15.40;99.90
59923;DHT22;45778;51.142;3.732;2023-07-20T00:43:55;15.40;99.90
59923;DHT22;45778;51.142;3.732;2023-07-20T00:46:23;15.40;99.90
59923;DHT22;45778;51.142;3.732;2023-07-20T00:48:50;15.30;99.90
59923;DHT22;45778;51.142;3.732;2023-07-20T00:51:15;15.20;99.90
59923;DHT22;45778;51.142;3.732;2023-07-20T00:53:41;15.10;99.90
59923;DHT22;45778;51.142;3.732;2023-07-20T00:56:07;15.10;99.90
59923;DHT22;45778;51.142;3.732;2023-07-20T00:58:35;15.00;99.90
59923;DHT22;45778;51.142;3.732;2023-07-20T01:01:00;14.90;99.90
59923;DHT22;45778;51.142;3.732;2023-07-20T01:03:26;14.80;99.90
59923;DHT22;45778;51.142;3.732;2023-07-20T01:11:31;14.90;99.90
59923;DHT22;45778;51.142;3.732;2023-07-20T01:14:01;14.90;99.90
59923;DHT22;45778;51.142;3.732;2023-07-20T01:16:27;14.80;99.90
59923;DHT22;45778;51.142;3.732;2023-07-20T01:18:53;14.80;99.90
59923;DHT22;45778;51.142;3.732;2023-07-20T01:21:26;14.70;99.90
59923;DHT22;45778;51.142;3.732;2023-07-20T01:24:04;14.70;99.90
59923;DHT22;45778;51.142;3.732;2023-07-20T01:26:59;14.70;99.90
59923;DHT22;45778;51.142;3.732;2023-07-20T01:32:06;14.70;99.90
59923;DHT22;45778;51.142;3.732;2023-07-20T01:34:34;14.80;99.90
59923;DHT22;45778;51.142;3.732;2023-07-20T01:37:03;14.70;99.90
59923;DHT22;45778;51.142;3.732;2023-07-20T01:39:31;14.70;99.90
59923;DHT22;45778;51.142;3.732;2023-07-20T01:41:57;14.70;99.90
59923;DHT22;45778;51.142;3.732;2023-07-20T01:44:23;14.80;99.90
59923;DHT22;45778;51.142;3.732;2023-07-20T01:46:49;14.80;99.90
59923;DHT22;45778;51.142;3.732;2023-07-20T01:49:14;14.80;99.90
59923;DHT22;45778;51.142;3.732;2023-07-20T01:51:41;14.80;99.90
59923;DHT22;45778;51.142;3.732;2023-07-20T01:54:06;14.80;99.90
59923;DHT22;45778;51.142;3.732;2023-07-20T01:56:32;14.80;99.90
59923;DHT22;45778;51.142;3.732;2023-07-20T01:58:58;14.80;99.90
59923;DHT22;45778;51.142;3.732;2023-07-20T02:01:23;14.80;99.90
59923;DHT22;45778;51.142;3.732;2023-07-20T02:03:49;14.70;99.90
59923;DHT22;45778;51.142;3.732;2023-07-20T02:06:15;14.70;99.90
59923;DHT22;45778;51.142;3.732;2023-07-20T02:08:40;14.80;99.90
59923;DHT22;45778;51.142;3.732;2023-07-20T02:11:06;14.80;99.90
59923;DHT22;45778;51.142;3.732;2023-07-20T02:13:32;14.90;99.90
59923;DHT22;45778;51.142;3.732;2023-07-20T02:15:57;15.00;99.90
59923;DHT22;45778;51.142;3.732;2023-07-20T02:18:23;15.00;99.90
59923;DHT22;45778;51.142;3.732;2023-07-20T02:20:49;14.80;99.90
59923;DHT22;45778;51.142;3.732;2023-07-20T02:23:14;14.70;99.90
59923;DHT22;45778;51.142;3.732;2023-07-20T02:25:40;14.80;99.90
59923;DHT22;45778;51.142;3.732;2023-07-20T02:28:07;14.80;99.90
59923;DHT22;45778;51.142;3.732;2023-07-20T02:30:37;14.90;99.90
59923;DHT22;45778;51.142;3.732;2023-07-20T02:33:03;14.90;99.90
59923;DHT22;45778;51.142;3.732;2023-07-20T02:35:30;14.80;99.90
59923;DHT22;45778;51.142;3.732;2023-07-20T02:37:57;14.70;99.90
59923;DHT22;45778;51.142;3.732;2023-07-20T02:40:22;14.70;99.90
59923;DHT22;45778;51.142;3.732;2023-07-20T02:42:48;14.70;99.90
59923;DHT22;45778;51.142;3.732;2023-07-20T02:45:14;14.80;99.90
59923;DHT22;45778;51.142;3.732;2023-07-20T02:47:40;15.00;99.90
59923;DHT22;45778;51.142;3.732;2023-07-20T02:50:07;15.00;99.90
59923;DHT22;45778;51.142;3.732;2023-07-20T02:52:33;15.10;99.90
59923;DHT22;45778;51.142;3.732;2023-07-20T02:54:59;15.00;99.90
59923;DHT22;45778;51.142;3.732;2023-07-20T02:57:25;15.00;99.90
59923;DHT22;45778;51.142;3.732;2023-07-20T02:59:50;15.00;99.90
59923;DHT22;45778;51.142;3.732;2023-07-20T03:02:16;15.00;99.90
59923;DHT22;45778;51.142;3.732;2023-07-20T03:04:42;15.00;99.90
59923;DHT22;45778;51.142;3.732;2023-07-20T03:07:07;15.00;99.90
59923;DHT22;45778;51.142;3.732;2023-07-20T03:09:33;15.10;99.90
59923;DHT22;45778;51.142;3.732;2023-07-20T03:11:59;15.20;99.90
59923;DHT22;45778;51.142;3.732;2023-07-20T03:14:25;15.30;99.90
59923;DHT22;45778;51.142;3.732;2023-07-20T03:16:50;15.30;99.90
59923;DHT22;45778;51.142;3.732;2023-07-20T03:19:16;15.30;99.90
59923;DHT22;45778;51.142;3.732;2023-07-20T03:21:42;15.30;99.90
59923;DHT22;45778;51.142;3.732;2023-07-20T03:24:08;15.10;99.90
59923;DHT22;45778;51.142;3.732;2023-07-20T03:26:35;15.10;99.90
59923;DHT22;45778;51.142;3.732;2023-07-20T03:29:01;15.20;99.90
59923;DHT22;45778;51.142;3.732;2023-07-20T03:31:27;15.20;99.90
59923;DHT22;45778;51.142;3.732;2023-07-20T03:33:53;15.20;99.90
59923;DHT22;45778;51.142;3.732;2023-07-20T03:36:18;15.20;99.90
59923;DHT22;45778;51.142;3.732;2023-07-20T03:38:45;15.10;99.90
59923;DHT22;45778;51.142;3.732;2023-07-20T03:41:10;15.10;99.90
59923;DHT22;45778;51.142;3.732;2023-07-20T03:43:37;15.00;99.90
59923;DHT22;45778;51.142;3.732;2023-07-20T03:46:03;15.00;99.90
59923;DHT22;45778;51.142;3.732;2023-07-20T03:48:33;14.90;99.90
59923;DHT22;45778;51.142;3.732;2023-07-20T03:50:58;14.90;99.90
59923;DHT22;45778;51.142;3.732;2023-07-20T03:53:25;14.80;99.90
59923;DHT22;45778;51.142;3.732;2023-07-20T03:55:52;14.90;99.90
59923;DHT22;45778;51.142;3.732;2023-07-20T03:58:19;14.80;99.90
59923;DHT22;45778;51.142;3.732;2023-07-20T04:00:49;14.80;99.90
59923;DHT22;45778;51.142;3.732;2023-07-20T04:03:19;14.80;99.90
59923;DHT22;45778;51.142;3.732;2023-07-20T04:05:45;14.90;99.90
59923;DHT22;45778;51.142;3.732;2023-07-20T04:08:11;15.00;99.90
59923;DHT22;45778;51.142;3.732;2023-07-20T04:10:37;15.10;99.90
59923;DHT22;45778;51.142;3.732;2023-07-20T04:13:03;15.10;99.90
59923;DHT22;45778;51.142;3.732;2023-07-20T04:15:29;15.10;99.90
59923;DHT22;45778;51.142;3.732;2023-07-20T04:17:55;15.10;99.90
59923;DHT22;45778;51.142;3.732;2023-07-20T04:20:22;15.00;99.90
59923;DHT22;45778;51.142;3.732;2023-07-20T04:22:48;15.00;99.90
59923;DHT22;45778;51.142;3.732;2023-07-20T04:25:14;15.20;99.90
59923;DHT22;45778;51.142;3.732;2023-07-20T04:27:40;15.30;99.90
59923;DHT22;45778;51.142;3.732;2023-07-20T04:30:09;15.40;99.90
59923;DHT22;45778;51.142;3.732;2023-07-20T04:32:37;15.50;99.90
59923;DHT22;45778;51.142;3.732;2023-07-20T04:35:06;15.50;99.90
59923;DHT22;45778;51.142;3.732;2023-07-20T04:37:33;15.50;99.90
59923;DHT22;45778;51.142;3.732;2023-07-20T04:39:59;15.60;99.90
59923;DHT22;45778;51.142;3.732;2023-07-20T04:42:24;15.60;99.90
59923;DHT22;45778;51.142;3.732;2023-07-20T04:44:50;15.60;99.90
59923;DHT22;45778;51.142;3.732;2023-07-20T04:47:16;15.60;99.90
59923;DHT22;45778;51.142;3.732;2023-07-20T04:49:41;15.70;99.90
59923;DHT22;45778;51.142;3.732;2023-07-20T04:52:07;15.70;99.90
59923;DHT22;45778;51.142;3.732;2023-07-20T04:54:33;15.80;99.90
59923;DHT22;45778;51.142;3.732;2023-07-20T04:56:59;15.80;99.90
59923;DHT22;45778;51.142;3.732;2023-07-20T04:59:24;16.10;99.90
59923;DHT22;45778;51.142;3.732;2023-07-20T05:01:50;16.20;99.90
59923;DHT22;45778;51.142;3.732;2023-07-20T05:04:16;16.30;99.90
59923;DHT22;45778;51.142;3.732;2023-07-20T05:06:42;16.20;99.90
59923;DHT22;45778;51.142;3.732;2023-07-20T05:09:08;16.30;99.90
59923;DHT22;45778;51.142;3.732;2023-07-20T05:11:33;16.40;99.90
59923;DHT22;45778;51.142;3.732;2023-07-20T05:14:00;16.30;99.90
59923;DHT22;45778;51.142;3.732;2023-07-20T05:16:25;16.40;99.90
59923;DHT22;45778;51.142;3.732;2023-07-20T05:18:51;16.50;99.90
59923;DHT22;45778;51.142;3.732;2023-07-20T05:21:17;16.60;99.90
59923;DHT22;45778;51.142;3.732;2023-07-20T05:23:43;16.70;99.90
59923;DHT22;45778;51.142;3.732;2023-07-20T05:26:08;16.70;99.90
59923;DHT22;45778;51.142;3.732;2023-07-20T05:28:34;16.80;99.90
59923;DHT22;45778;51.142;3.732;2023-07-20T05:31:02;17.00;99.90
59923;DHT22;45778;51.142;3.732;2023-07-20T05:33:28;17.10;99.90
59923;DHT22;45778;51.142;3.732;2023-07-20T05:35:54;17.10;99.90
59923;DHT22;45778;51.142;3.732;2023-07-20T05:38:19;17.40;99.90
59923;DHT22;45778;51.142;3.732;2023-07-20T05:40:45;17.50;99.90
59923;DHT22;45778;51.142;3.732;2023-07-20T05:43:12;17.60;99.90
59923;DHT22;45778;51.142;3.732;2023-07-20T05:45:41;17.60;99.90
59923;DHT22;45778;51.142;3.732;2023-07-20T05:48:08;17.60;99.90
59923;DHT22;45778;51.142;3.732;2023-07-20T05:50:37;17.70;99.90
59923;DHT22;45778;51.142;3.732;2023-07-20T05:53:02;17.70;99.90
59923;DHT22;45778;51.142;3.732;2023-07-20T05:55:28;17.80;99.90
59923;DHT22;45778;51.142;3.732;2023-07-20T05:57:54;17.90;99.90
59923;DHT22;45778;51.142;3.732;2023-07-20T06:00:21;17.90;99.90
59923;DHT22;45778;51.142;3.732;2023-07-20T06:02:52;18.10;99.90
59923;DHT22;45778;51.142;3.732;2023-07-20T06:05:19;18.20;99.90
59923;DHT22;45778;51.142;3.732;2023-07-20T06:07:45;18.10;99.90
59923;DHT22;45778;51.142;3.732;2023-07-20T06:10:11;18.00;99.90
59923;DHT22;45778;51.142;3.732;2023-07-20T06:12:37;18.20;99.90
59923;DHT22;45778;51.142;3.732;2023-07-20T06:15:04;18.30;99.90
59923;DHT22;45778;51.142;3.732;2023-07-20T06:17:30;18.50;99.90
59923;DHT22;45778;51.142;3.732;2023-07-20T06:19:56;18.80;99.90
59923;DHT22;45778;51.142;3.732;2023-07-20T06:22:21;18.80;99.90
59923;DHT22;45778;51.142;3.732;2023-07-20T06:24:47;18.70;99.90
59923;DHT22;45778;51.142;3.732;2023-07-20T06:27:13;18.50;99.90
59923;DHT22;45778;51.142;3.732;2023-07-20T06:29:38;18.70;99.90
59923;DHT22;45778;51.142;3.732;2023-07-20T06:32:05;18.70;99.90
59923;DHT22;45778;51.142;3.732;2023-07-20T06:34:31;18.80;99.90
59923;DHT22;45778;51.142;3.732;2023-07-20T06:37:02;18.10;99.90
59923;DHT22;45778;51.142;3.732;2023-07-20T06:39:29;18.40;99.90
59923;DHT22;45778;51.142;3.732;2023-07-20T06:41:55;18.50;99.90
59923;DHT22;45778;51.142;3.732;2023-07-20T06:44:20;18.70;99.90
59923;DHT22;45778;51.142;3.732;2023-07-20T06:46:46;19.10;99.90
59923;DHT22;45778;51.142;3.732;2023-07-20T06:49:27;19.40;99.90
59923;DHT22;45778;51.142;3.732;2023-07-20T06:51:53;19.20;99.90
59923;DHT22;45778;51.142;3.732;2023-07-20T06:54:22;18.50;99.90
59923;DHT22;45778;51.142;3.732;2023-07-20T06:56:48;18.40;99.90
59923;DHT22;45778;51.142;3.732;2023-07-20T06:59:13;18.30;99.90
59923;DHT22;45778;51.142;3.732;2023-07-20T07:01:39;18.50;99.90
59923;DHT22;45778;51.142;3.732;2023-07-20T07:04:05;18.70;99.90
59923;DHT22;45778;51.142;3.732;2023-07-20T07:06:31;19.10;99.90
59923;DHT22;45778;51.142;3.732;2023-07-20T07:08:57;19.70;99.90
59923;DHT22;45778;51.142;3.732;2023-07-20T07:11:22;19.20;99.90
59923;DHT22;45778;51.142;3.732;2023-07-20T07:13:48;19.30;99.90
59923;DHT22;45778;51.142;3.732;2023-07-20T07:16:17;19.30;99.90
59923;DHT22;45778;51.142;3.732;2023-07-20T07:18:47;19.90;99.90
59923;DHT22;45778;51.142;3.732;2023-07-20T07:21:12;20.20;99.90
59923;DHT22;45778;51.142;3.732;2023-07-20T07:23:39;20.50;99.90
59923;DHT22;45778;51.142;3.732;2023-07-20T07:26:05;20.90;99.90
59923;DHT22;45778;51.142;3.732;2023-07-20T07:28:31;21.40;99.90
59923;DHT22;45778;51.142;3.732;2023-07-20T07:30:57;21.80;99.90
59923;DHT22;45778;51.142;3.732;2023-07-20T07:33:23;22.10;99.90
59923;DHT22;45778;51.142;3.732;2023-07-20T07:35:50;22.10;99.90
59923;DHT22;45778;51.142;3.732;2023-07-20T07:38:16;21.70;99.90
59923;DHT22;45778;51.142;3.732;2023-07-20T07:40:42;21.20;99.90
59923;DHT22;45778;51.142;3.732;2023-07-20T07:43:08;21.60;99.90
59923;DHT22;45778;51.142;3.732;2023-07-20T07:45:35;21.70;99.90
59923;DHT22;45778;51.142;3.732;2023-07-20T07:48:02;22.00;99.90
59923;DHT22;45778;51.142;3.732;2023-07-20T07:50:28;21.50;99.90
59923;DHT22;45778;51.142;3.732;2023-07-20T07:52:54;21.40;99.90
59923;DHT22;45778;51.142;3.732;2023-07-20T07:55:20;21.20;99.90
59923;DHT22;45778;51.142;3.732;2023-07-20T07:57:46;20.80;99.90
59923;DHT22;45778;51.142;3.732;2023-07-20T08:00:13;20.90;99.90
59923;DHT22;45778;51.142;3.732;2023-07-20T08:02:43;20.40;99.90
59923;DHT22;45778;51.142;3.732;2023-07-20T08:05:09;20.50;99.90
59923;DHT22;45778;51.142;3.732;2023-07-20T08:07:38;20.70;99.90
59923;DHT22;45778;51.142;3.732;2023-07-20T08:10:04;20.70;99.90
59923;DHT22;45778;51.142;3.732;2023-07-20T08:12:31;20.60;99.90
59923;DHT22;45778;51.142;3.732;2023-07-20T08:14:56;20.70;99.90
59923;DHT22;45778;51.142;3.732;2023-07-20T08:17:22;21.00;99.90
59923;DHT22;45778;51.142;3.732;2023-07-20T08:19:48;21.20;99.90
59923;DHT22;45778;51.142;3.732;2023-07-20T08:22:13;21.30;99.90
59923;DHT22;45778;51.142;3.732;2023-07-20T08:24:43;21.50;99.90
59923;DHT22;45778;51.142;3.732;2023-07-20T08:27:09;21.30;99.90
59923;DHT22;45778;51.142;3.732;2023-07-20T08:29:35;21.50;99.90
59923;DHT22;45778;51.142;3.732;2023-07-20T08:32:02;22.20;99.90
59923;DHT22;45778;51.142;3.732;2023-07-20T08:34:28;22.40;99.30
59923;DHT22;45778;51.142;3.732;2023-07-20T08:36:53;23.10;98.60
59923;DHT22;45778;51.142;3.732;2023-07-20T08:39:19;23.00;98.40
59923;DHT22;45778;51.142;3.732;2023-07-20T08:41:48;23.30;98.40
59923;DHT22;45778;51.142;3.732;2023-07-20T08:44:14;22.90;98.20
59923;DHT22;45778;51.142;3.732;2023-07-20T08:46:41;23.40;97.90
59923;DHT22;45778;51.142;3.732;2023-07-20T08:49:08;23.60;97.30
59923;DHT22;45778;51.142;3.732;2023-07-20T08:51:35;23.70;96.80
59923;DHT22;45778;51.142;3.732;2023-07-20T08:54:02;23.60;96.10
59923;DHT22;45778;51.142;3.732;2023-07-20T08:56:28;23.80;96.40
59923;DHT22;45778;51.142;3.732;2023-07-20T08:58:56;23.90;95.70
59923;DHT22;45778;51.142;3.732;2023-07-20T09:01:22;24.00;95.30
59923;DHT22;45778;51.142;3.732;2023-07-20T09:03:49;24.10;94.90
59923;DHT22;45778;51.142;3.732;2023-07-20T09:06:15;24.20;94.60
59923;DHT22;45778;51.142;3.732;2023-07-20T09:08:41;24.20;94.60
59923;DHT22;45778;51.142;3.732;2023-07-20T09:11:09;24.40;95.00
59923;DHT22;45778;51.142;3.732;2023-07-20T09:13:35;24.50;94.10
59923;DHT22;45778;51.142;3.732;2023-07-20T09:16:02;24.40;93.50
59923;DHT22;45778;51.142;3.732;2023-07-20T09:18:31;24.60;93.90
59923;DHT22;45778;51.142;3.732;2023-07-20T09:21:04;24.30;93.80
59923;DHT22;45778;51.142;3.732;2023-07-20T09:23:35;24.00;94.90
59923;DHT22;45778;51.142;3.732;2023-07-20T09:26:10;24.10;93.90
59923;DHT22;45778;51.142;3.732;2023-07-20T09:28:44;24.00;95.10
59923;DHT22;45778;51.142;3.732;2023-07-20T09:31:20;23.70;94.60
59923;DHT22;45778;51.142;3.732;2023-07-20T09:33:47;24.30;93.60
59923;DHT22;45778;51.142;3.732;2023-07-20T09:36:13;24.50;93.60
59923;DHT22;45778;51.142;3.732;2023-07-20T09:38:43;25.20;92.60
59923;DHT22;45778;51.142;3.732;2023-07-20T09:41:13;25.40;92.00
59923;DHT22;45778;51.142;3.732;2023-07-20T09:43:40;25.50;91.30
59923;DHT22;45778;51.142;3.732;2023-07-20T09:46:06;25.50;90.80
59923;DHT22;45778;51.142;3.732;2023-07-20T09:48:32;25.60;90.70
59923;DHT22;45778;51.142;3.732;2023-07-20T09:50:58;25.50;90.80
59923;DHT22;45778;51.142;3.732;2023-07-20T09:53:25;25.10;91.00
59923;DHT22;45778;51.142;3.732;2023-07-20T09:55:52;24.80;91.40
59923;DHT22;45778;51.142;3.732;2023-07-20T09:58:18;24.70;91.30
59923;DHT22;45778;51.142;3.732;2023-07-20T10:00:45;24.60;90.70
59923;DHT22;45778;51.142;3.732;2023-07-20T10:03:20;24.20;91.60
59923;DHT22;45778;51.142;3.732;2023-07-20T10:05:51;24.50;91.50
59923;DHT22;45778;51.142;3.732;2023-07-20T10:08:19;24.30;91.60
59923;DHT22;45778;51.142;3.732;2023-07-20T10:10:47;24.30;92.10
59923;DHT22;45778;51.142;3.732;2023-07-20T10:13:17;24.00;92.20
59923;DHT22;45778;51.142;3.732;2023-07-20T10:15:47;24.20;92.30
59923;DHT22;45778;51.142;3.732;2023-07-20T10:20:48;24.10;92.30
59923;DHT22;45778;51.142;3.732;2023-07-20T10:23:16;24.40;92.00
59923;DHT22;45778;51.142;3.732;2023-07-20T10:25:43;24.50;91.80
59923;DHT22;45778;51.142;3.732;2023-07-20T10:28:10;24.40;92.10
59923;DHT22;45778;51.142;3.732;2023-07-20T10:30:36;24.70;91.90
59923;DHT22;45778;51.142;3.732;2023-07-20T10:33:03;24.40;91.70
59923;DHT22;45778;51.142;3.732;2023-07-20T10:35:29;24.30;92.00
59923;DHT22;45778;51.142;3.732;2023-07-20T10:38:03;24.50;91.60
59923;DHT22;45778;51.142;3.732;2023-07-20T10:40:32;24.80;91.80
59923;DHT22;45778;51.142;3.732;2023-07-20T10:43:03;24.60;91.20
59923;DHT22;45778;51.142;3.732;2023-07-20T10:48:05;24.20;91.70
59923;DHT22;45778;51.142;3.732;2023-07-20T10:50:33;23.80;91.90
59923;DHT22;45778;51.142;3.732;2023-07-20T10:53:16;23.30;92.80
59923;DHT22;45778;51.142;3.732;2023-07-20T10:55:42;23.50;92.70
59923;DHT22;45778;51.142;3.732;2023-07-20T10:58:14;23.50;92.90
59923;DHT22;45778;51.142;3.732;2023-07-20T11:01:00;23.30;94.10
59923;DHT22;45778;51.142;3.732;2023-07-20T11:03:27;23.80;93.30
59923;DHT22;45778;51.142;3.732;2023-07-20T11:05:53;24.00;93.40
59923;DHT22;45778;51.142;3.732;2023-07-20T11:08:39;24.00;91.80
59923;DHT22;45778;51.142;3.732;2023-07-20T11:11:27;23.60;93.00
59923;DHT22;45778;51.142;3.732;2023-07-20T11:14:03;23.80;92.90
59923;DHT22;45778;51.142;3.732;2023-07-20T11:16:45;24.00;91.70
59923;DHT22;45778;51.142;3.732;2023-07-20T11:19:19;24.00;93.00
59923;DHT22;45778;51.142;3.732;2023-07-20T11:21:47;24.20;92.60
59923;DHT22;45778;51.142;3.732;2023-07-20T11:24:15;23.90;93.10
59923;DHT22;45778;51.142;3.732;2023-07-20T11:26:42;23.50;93.40
59923;DHT22;45778;51.142;3.732;2023-07-20T11:29:08;22.90;94.10
59923;DHT22;45778;51.142;3.732;2023-07-20T11:31:42;22.50;94.90
59923;DHT22;45778;51.142;3.732;2023-07-20T11:34:11;22.30;94.70
59923;DHT22;45778;51.142;3.732;2023-07-20T11:36:42;22.60;94.40
59923;DHT22;45778;51.142;3.732;2023-07-20T11:39:12;22.70;94.00
59923;DHT22;45778;51.142;3.732;2023-07-20T11:41:38;23.10;93.90
59923;DHT22;45778;51.142;3.732;2023-07-20T11:44:05;23.10;93.10
59923;DHT22;45778;51.142;3.732;2023-07-20T11:46:41;23.50;93.20
59923;DHT22;45778;51.142;3.732;2023-07-20T11:49:08;23.80;92.60
59923;DHT22;45778;51.142;3.732;2023-07-20T11:51:34;24.20;92.00
59923;DHT22;45778;51.142;3.732;2023-07-20T11:54:02;24.50;92.10
59923;DHT22;45778;51.142;3.732;2023-07-20T11:56:28;25.00;91.30
59923;DHT22;45778;51.142;3.732;2023-07-20T11:58:55;24.70;90.60
59923;DHT22;45778;51.142;3.732;2023-07-20T12:01:23;25.20;91.80
59923;DHT22;45778;51.142;3.732;2023-07-20T12:03:49;26.10;90.50
59923;DHT22;45778;51.142;3.732;2023-07-20T12:06:15;25.10;90.60
59923;DHT22;45778;51.142;3.732;2023-07-20T12:08:42;26.20;89.90
59923;DHT22;45778;51.142;3.732;2023-07-20T12:11:08;26.20;89.20
59923;DHT22;45778;51.142;3.732;2023-07-20T12:13:37;26.50;87.10
59923;DHT22;45778;51.142;3.732;2023-07-20T12:16:10;26.80;86.60
59923;DHT22;45778;51.142;3.732;2023-07-20T12:18:36;26.10;85.80
59923;DHT22;45778;51.142;3.732;2023-07-20T12:21:02;25.40;87.60
59923;DHT22;45778;51.142;3.732;2023-07-20T12:23:35;25.40;88.40
59923;DHT22;45778;51.142;3.732;2023-07-20T12:26:02;27.00;84.60
59923;DHT22;45778;51.142;3.732;2023-07-20T12:28:29;27.40;84.50
59923;DHT22;45778;51.142;3.732;2023-07-20T12:30:55;27.20;84.60
59923;DHT22;45778;51.142;3.732;2023-07-20T12:33:24;28.40;83.10
59923;DHT22;45778;51.142;3.732;2023-07-20T12:35:50;31.40;80.40
59923;DHT22;45778;51.142;3.732;2023-07-20T12:38:16;33.70;73.20
59923;DHT22;45778;51.142;3.732;2023-07-20T12:40:42;34.60;70.10
59923;DHT22;45778;51.142;3.732;2023-07-20T12:43:08;32.80;67.10
59923;DHT22;45778;51.142;3.732;2023-07-20T12:45:34;31.50;69.30
59923;DHT22;45778;51.142;3.732;2023-07-20T12:48:00;30.20;70.20
59923;DHT22;45778;51.142;3.732;2023-07-20T12:50:26;29.30;71.50
59923;DHT22;45778;51.142;3.732;2023-07-20T12:52:52;28.20;73.70
59923;DHT22;45778;51.142;3.732;2023-07-20T12:55:18;27.60;75.70
59923;DHT22;45778;51.142;3.732;2023-07-20T12:57:45;26.90;76.80
59923;DHT22;45778;51.142;3.732;2023-07-20T13:00:11;25.90;78.00
59923;DHT22;45778;51.142;3.732;2023-07-20T13:02:38;25.50;78.90
59923;DHT22;45778;51.142;3.732;2023-07-20T13:05:03;25.80;79.00
59923;DHT22;45778;51.142;3.732;2023-07-20T13:07:34;25.30;79.30
59923;DHT22;45778;51.142;3.732;2023-07-20T13:10:02;25.30;79.20
59923;DHT22;45778;51.142;3.732;2023-07-20T13:12:30;24.80;81.30
59923;DHT22;45778;51.142;3.732;2023-07-20T13:14:57;24.50;81.10
59923;DHT22;45778;51.142;3.732;2023-07-20T13:17:26;24.10;82.20
59923;DHT22;45778;51.142;3.732;2023-07-20T13:19:52;23.90;82.90
59923;DHT22;45778;51.142;3.732;2023-07-20T13:22:17;23.80;84.00
59923;DHT22;45778;51.142;3.732;2023-07-20T13:24:45;23.80;82.60
59923;DHT22;45778;51.142;3.732;2023-07-20T13:27:17;23.70;83.60
59923;DHT22;45778;51.142;3.732;2023-07-20T13:29:43;23.50;84.20
59923;DHT22;45778;51.142;3.732;2023-07-20T13:32:09;23.40;84.30
59923;DHT22;45778;51.142;3.732;2023-07-20T13:34:35;23.10;84.40
59923;DHT22;45778;51.142;3.732;2023-07-20T13:37:02;22.80;87.50
59923;DHT22;45778;51.142;3.732;2023-07-20T13:39:27;22.20;92.60
59923;DHT22;45778;51.142;3.732;2023-07-20T13:41:54;21.40;95.20
59923;DHT22;45778;51.142;3.732;2023-07-20T13:44:20;21.00;97.70
59923;DHT22;45778;51.142;3.732;2023-07-20T13:46:47;20.70;99.70
59923;DHT22;45778;51.142;3.732;2023-07-20T13:49:13;20.30;99.90
59923;DHT22;45778;51.142;3.732;2023-07-20T13:51:39;20.20;99.90
59923;DHT22;45778;51.142;3.732;2023-07-20T13:54:06;20.30;99.90
59923;DHT22;45778;51.142;3.732;2023-07-20T13:56:31;20.20;99.90
59923;DHT22;45778;51.142;3.732;2023-07-20T13:58:57;20.10;99.90
59923;DHT22;45778;51.142;3.732;2023-07-20T14:01:23;20.00;99.90
59923;DHT22;45778;51.142;3.732;2023-07-20T14:03:50;19.60;99.90
59923;DHT22;45778;51.142;3.732;2023-07-20T14:06:16;19.30;99.90
59923;DHT22;45778;51.142;3.732;2023-07-20T14:08:43;19.40;99.90
59923;DHT22;45778;51.142;3.732;2023-07-20T14:11:12;19.60;99.90
59923;DHT22;45778;51.142;3.732;2023-07-20T14:13:38;19.50;99.90
59923;DHT22;45778;51.142;3.732;2023-07-20T14:16:04;19.30;99.90
59923;DHT22;45778;51.142;3.732;2023-07-20T14:18:29;19.30;99.90
59923;DHT22;45778;51.142;3.732;2023-07-20T14:20:55;19.70;99.90
59923;DHT22;45778;51.142;3.732;2023-07-20T14:23:21;20.00;99.90
59923;DHT22;45778;51.142;3.732;2023-07-20T14:25:48;19.60;99.90
59923;DHT22;45778;51.142;3.732;2023-07-20T14:28:14;19.70;99.90
59923;DHT22;45778;51.142;3.732;2023-07-20T14:30:40;19.90;99.90
59923;DHT22;45778;51.142;3.732;2023-07-20T14:33:06;20.20;99.90
59923;DHT22;45778;51.142;3.732;2023-07-20T14:35:32;20.30;99.90
59923;DHT22;45778;51.142;3.732;2023-07-20T14:37:58;20.40;99.90
59923;DHT22;45778;51.142;3.732;2023-07-20T14:40:23;20.50;99.90
59923;DHT22;45778;51.142;3.732;2023-07-20T14:42:49;20.30;99.90
59923;DHT22;45778;51.142;3.732;2023-07-20T14:45:15;20.40;99.90
59923;DHT22;45778;51.142;3.732;2023-07-20T14:47:41;20.40;99.90
59923;DHT22;45778;51.142;3.732;2023-07-20T14:50:08;20.50;99.90
59923;DHT22;45778;51.142;3.732;2023-07-20T14:52:34;20.60;99.90
59923;DHT22;45778;51.142;3.732;2023-07-20T14:55:00;20.70;99.90
59923;DHT22;45778;51.142;3.732;2023-07-20T14:57:26;20.80;99.90
59923;DHT22;45778;51.142;3.732;2023-07-20T14:59:51;20.80;99.90
59923;DHT22;45778;51.142;3.732;2023-07-20T15:02:18;20.50;99.90
59923;DHT22;45778;51.142;3.732;2023-07-20T15:04:51;20.40;99.90
59923;DHT22;45778;51.142;3.732;2023-07-20T15:07:18;20.10;99.90
59923;DHT22;45778;51.142;3.732;2023-07-20T15:09:45;20.20;99.90
59923;DHT22;45778;51.142;3.732;2023-07-20T15:12:11;19.90;99.90
59923;DHT22;45778;51.142;3.732;2023-07-20T15:14:41;19.90;99.90
59923;DHT22;45778;51.142;3.732;2023-07-20T15:17:08;20.00;99.90
59923;DHT22;45778;51.142;3.732;2023-07-20T15:19:34;19.90;99.90
59923;DHT22;45778;51.142;3.732;2023-07-20T15:22:02;20.00;99.90
59923;DHT22;45778;51.142;3.732;2023-07-20T15:24:32;20.00;99.90
59923;DHT22;45778;51.142;3.732;2023-07-20T15:26:58;20.00;99.90
59923;DHT22;45778;51.142;3.732;2023-07-20T15:29:24;19.90;99.90
59923;DHT22;45778;51.142;3.732;2023-07-20T15:31:50;20.00;99.90
59923;DHT22;45778;51.142;3.732;2023-07-20T15:34:15;19.80;99.90
59923;DHT22;45778;51.142;3.732;2023-07-20T15:36:41;20.20;99.90
59923;DHT22;45778;51.142;3.732;2023-07-20T15:39:10;20.50;99.90
59923;DHT22;45778;51.142;3.732;2023-07-20T15:41:36;21.10;99.90